X  Chiuso Dati meteorologici dell'aviazione (METAR)     LIPH Treviso-Sant'Angelo Airport
Temperatura
31°C Temperatura
19°C Punto di rugiada
49% Umidità



Vento
11 KM/O
7 MPH
3 M/S
6 KTS



40°
NE
Condizioni attuali

Chiaro Chiaro
Pressione 1015.92 (hPa) - 30 (inHg)
Visibilità 6 (miglio) - 9.7 (km)
Aeroporto
Codice-Aeroporto LIPH

Posizione: Treviso-Sant'Angelo Airport
Distanza: 23 (km)

Metar:
LIPH 190820Z 04006KT 360V080 CAVOK 31/19 Q1016

Ore: 19-07-2024 08:20 CEST